Time;durP1;ratioP1;P1;durP2;ratioP2;P2;SDS_P1;SDS_P2;PMS_P1;PMS_P2;Temp;Humidity;BMP_temperature;BMP_pressure;BME280_temperature;BME280_humidity;BME280_pressure;Samples;Min_cycle;Max_cycle;Signal;HPM_P1;HPM_P2
2021/03/21 00:01:33;;;;;;;7.47;4.30;;;;;;;5.36;44.32;101187.72;5037075;28;20072;-80
2021/03/21 00:04:00;;;;;;;7.43;4.35;;;;;;;5.36;44.45;101171.94;5023337;28;20057;-82
2021/03/21 00:06:26;;;;;;;6.38;3.88;;;;;;;5.32;44.74;101167.66;5034462;28;20063;-83
2021/03/21 00:08:53;;;;;;;6.45;4.15;;;;;;;5.34;45.01;101173.75;5031587;28;20068;-83
2021/03/21 00:11:20;;;;;;;14.80;4.55;;;;;;;5.34;45.07;101162.38;5030372;28;20081;-82
2021/03/21 00:13:47;;;;;;;7.20;4.10;;;;;;;5.37;45.47;101164.94;5030985;28;20060;-83
2021/03/21 00:16:14;;;;;;;6.65;4.20;;;;;;;5.33;45.75;101164.13;5027309;28;20070;-80
2021/03/21 00:18:43;;;;;;;7.13;4.35;;;;;;;5.32;45.72;101162.41;5028680;28;20057;-81
2021/03/21 00:21:13;;;;;;;9.55;4.15;;;;;;;5.32;45.55;101161.53;5016211;28;20054;-87
2021/03/21 00:23:40;;;;;;;7.03;4.03;;;;;;;5.29;45.23;101154.56;5014245;28;20049;-82
2021/03/21 00:26:08;;;;;;;8.30;4.28;;;;;;;5.29;45.65;101155.44;5018974;28;20148;-81
2021/03/21 00:28:36;;;;;;;24.45;14.93;;;;;;;5.29;45.42;101158.06;5018946;28;20088;-81
2021/03/21 00:31:11;;;;;;;8.32;5.00;;;;;;;5.29;45.57;101152.81;5016400;28;20448;-82
2021/03/21 00:33:39;;;;;;;6.55;4.13;;;;;;;5.29;45.57;101149.31;5009999;28;20057;-83
2021/03/21 00:36:09;;;;;;;7.63;4.35;;;;;;;5.28;45.85;101148.44;5019348;28;20111;-81
2021/03/21 00:38:43;;;;;;;7.45;4.47;;;;;;;5.30;46.17;101145.78;5027478;28;20117;-80
2021/03/21 00:41:12;;;;;;;5.70;4.05;;;;;;;5.32;46.12;101145.78;5026452;28;20067;-85
2021/03/21 00:43:40;;;;;;;7.60;3.90;;;;;;;5.29;46.08;101137.03;5023968;28;20054;-81
2021/03/21 00:46:11;;;;;;;11.48;5.10;;;;;;;5.29;45.81;101129.16;5010532;28;20515;-82
2021/03/21 00:48:40;;;;;;;5.80;4.10;;;;;;;5.30;46.25;101114.28;5023466;28;20114;-84
2021/03/21 00:51:07;;;;;;;9.77;4.10;;;;;;;5.31;46.06;101112.53;5028123;28;20056;-81
2021/03/21 00:53:34;;;;;;;7.72;4.43;;;;;;;5.34;45.87;101109.84;5017558;28;20117;-83
2021/03/21 00:56:01;;;;;;;5.72;4.10;;;;;;;5.33;45.15;101105.50;5044654;28;20121;-80
2021/03/21 00:58:27;;;;;;;6.15;4.18;;;;;;;5.29;46.20;101099.41;5040327;28;20061;-79
2021/03/21 01:00:56;;;;;;;7.82;4.25;;;;;;;5.30;45.57;101098.53;5027016;28;20053;-80
2021/03/21 01:03:23;;;;;;;6.75;4.30;;;;;;;5.35;45.88;101096.72;5023135;28;20058;-81
2021/03/21 01:05:53;;;;;;;8.30;4.20;;;;;;;5.38;45.71;101083.50;5023574;28;20098;-80
2021/03/21 01:08:23;;;;;;;6.90;4.47;;;;;;;5.40;45.58;101088.75;5006318;28;20107;-80
2021/03/21 01:11:05;;;;;;;6.13;4.17;;;;;;;5.39;45.55;101085.25;5015684;28;20054;-80
2021/03/21 01:13:33;;;;;;;7.38;4.75;;;;;;;5.35;45.79;101074.84;5006833;28;20109;-80
2021/03/21 01:16:00;;;;;;;7.35;4.35;;;;;;;5.31;45.66;101070.50;5016066;28;20056;-82
2021/03/21 01:18:30;;;;;;;7.55;5.32;;;;;;;5.27;46.12;101067.03;5027966;28;20463;-83
2021/03/21 01:20:58;;;;;;;8.23;4.75;;;;;;;5.30;46.94;101061.75;5036835;28;20480;-84
2021/03/21 01:23:25;;;;;;;9.23;4.78;;;;;;;5.33;46.04;101069.59;5027670;28;20045;-80
2021/03/21 01:25:52;;;;;;;6.20;4.28;;;;;;;5.34;46.45;101067.84;5011250;28;20060;-83
2021/03/21 01:28:21;;;;;;;7.25;4.57;;;;;;;5.33;46.34;101066.09;5017122;28;20109;-81
2021/03/21 01:30:50;;;;;;;9.27;5.60;;;;;;;5.31;46.45;101066.13;5023935;28;20445;-83
2021/03/21 01:33:17;;;;;;;7.25;4.82;;;;;;;5.27;46.51;101062.66;5027145;28;20050;-82
2021/03/21 01:35:44;;;;;;;7.93;4.30;;;;;;;5.28;46.01;101063.53;5028390;28;20057;-82
2021/03/21 01:38:11;;;;;;;9.02;4.72;;;;;;;5.25;47.27;101060.94;5025987;28;20056;-80
2021/03/21 01:40:37;;;;;;;6.40;4.47;;;;;;;5.25;46.79;101061.81;5016415;28;20378;-80
2021/03/21 01:43:05;;;;;;;8.38;4.60;;;;;;;5.31;47.00;101060.00;5016260;28;20050;-81
2021/03/21 01:45:46;;;;;;;6.38;4.30;;;;;;;5.32;47.29;101059.13;5014583;28;20061;-83
2021/03/21 01:48:17;;;;;;;6.60;4.88;;;;;;;5.31;46.68;101063.50;5013653;28;20104;-83
2021/03/21 01:51:14;;;;;;;8.15;4.65;;;;;;;5.19;47.31;101056.66;5020285;28;20104;-82
2021/03/21 01:53:44;;;;;;;9.15;4.95;;;;;;;5.09;48.13;101044.53;5027612;28;20085;-80
2021/03/21 01:56:12;;;;;;;6.13;4.30;;;;;;;5.00;48.02;101034.19;5030268;28;20060;-80
2021/03/21 01:58:39;;;;;;;7.88;4.57;;;;;;;5.02;49.09;101042.91;5026932;28;20121;-79
2021/03/21 02:01:17;;;;;;;8.57;4.93;;;;;;;5.06;48.96;101047.22;5011781;28;20144;-79
2021/03/21 02:03:44;;;;;;;8.02;4.60;;;;;;;5.09;48.38;101041.91;5014747;28;20089;-81
2021/03/21 02:06:26;;;;;;;8.02;4.38;;;;;;;5.10;48.83;101043.66;5018199;28;20080;-83
2021/03/21 02:08:58;;;;;;;7.25;4.38;;;;;;;5.12;48.56;101036.63;5008694;28;20042;-83
2021/03/21 02:11:49;;;;;;;7.47;4.45;;;;;;;5.06;48.86;101030.59;5016781;28;20117;-80
2021/03/21 02:14:33;;;;;;;6.88;4.30;;;;;;;5.07;49.30;101041.06;5023592;28;20084;-79
2021/03/21 02:17:25;;;;;;;8.30;4.25;;;;;;;5.08;49.46;101040.19;5020955;28;20050;-79
2021/03/21 02:20:15;;;;;;;8.73;4.60;;;;;;;5.09;49.12;101041.91;5011307;28;20053;-82
2021/03/21 02:22:57;;;;;;;9.30;4.50;;;;;;;5.08;49.73;101049.81;4974342;28;20054;-81
2021/03/21 02:25:24;;;;;;;9.20;4.65;;;;;;;5.02;49.37;101045.53;5009653;28;20140;-80
2021/03/21 02:28:26;;;;;;;7.28;4.32;;;;;;;4.99;50.13;101037.69;5023505;28;20082;-83
2021/03/21 02:30:59;;;;;;;8.73;4.75;;;;;;;4.98;50.04;101025.47;5005427;28;20058;-82
2021/03/21 02:33:54;;;;;;;6.53;4.88;;;;;;;4.96;50.26;101029.88;5011038;28;20295;-82
2021/03/21 02:37:10;;;;;;;8.63;4.53;;;;;;;4.90;50.13;101022.06;5018012;28;20050;-85
2021/03/21 02:39:48;;;;;;;9.50;4.70;;;;;;;4.86;50.82;101023.03;5026326;28;20104;-83
2021/03/21 02:42:22;;;;;;;6.13;4.45;;;;;;;4.85;51.06;101016.03;5026338;28;20058;-80
2021/03/21 02:45:01;;;;;;;7.93;4.60;;;;;;;4.87;51.80;101014.25;5028654;28;20050;-83
2021/03/21 02:47:29;;;;;;;8.82;4.97;;;;;;;4.92;50.77;101012.41;5018906;28;20054;-79
2021/03/21 02:50:03;;;;;;;6.63;4.72;;;;;;;4.97;51.10;101018.47;5026056;28;20062;-81
2021/03/21 02:52:42;;;;;;;6.90;4.68;;;;;;;4.96;51.27;101015.88;5023357;28;20060;-79
2021/03/21 02:55:30;;;;;;;7.80;5.28;;;;;;;4.86;51.73;101008.13;5027762;28;20117;-79
2021/03/21 02:58:01;;;;;;;9.90;5.15;;;;;;;4.81;51.61;100994.22;5025686;28;20118;-83
2021/03/21 03:00:34;;;;;;;6.68;5.00;;;;;;;4.73;52.08;100985.56;5029552;28;20117;-81
2021/03/21 03:03:03;;;;;;;11.48;5.13;;;;;;;4.74;52.03;100984.66;5027096;28;20076;-83
2021/03/21 03:05:40;;;;;;;8.43;4.93;;;;;;;4.76;52.64;100971.53;5030516;28;20046;-81
2021/03/21 03:08:22;;;;;;;9.35;4.85;;;;;;;4.77;52.17;100976.75;5034850;28;20045;-82
2021/03/21 03:10:59;;;;;;;8.15;4.72;;;;;;;4.81;52.85;100967.09;5024553;28;20357;-89
2021/03/21 03:13:34;;;;;;;10.15;5.35;;;;;;;4.83;53.11;100958.31;5024410;28;20080;-82
2021/03/21 03:16:08;;;;;;;8.95;5.13;;;;;;;4.89;53.31;100945.09;5025558;28;20058;-81
2021/03/21 03:18:40;;;;;;;7.95;5.13;;;;;;;5.00;52.69;100944.09;5022489;28;20149;-83
2021/03/21 03:21:21;;;;;;;10.30;5.10;;;;;;;4.98;52.51;100938.84;5022553;28;20064;-84
2021/03/21 03:24:01;;;;;;;8.15;5.03;;;;;;;5.02;52.47;100951.03;5018049;28;20053;-82
2021/03/21 03:26:50;;;;;;;11.35;5.78;;;;;;;5.03;52.47;100952.78;5015011;28;20085;-82
2021/03/21 03:29:31;;;;;;;8.27;5.35;;;;;;;5.00;52.67;100947.56;5011917;28;20576;-84
2021/03/21 03:31:59;;;;;;;6.60;5.00;;;;;;;4.97;52.90;100947.63;5015964;28;20053;-89
2021/03/21 03:34:29;;;;;;;10.32;5.57;;;;;;;4.93;53.21;100945.91;5023605;28;20053;-85
2021/03/21 03:36:55;;;;;;;8.60;5.60;;;;;;;4.90;53.02;100938.94;5021306;28;20058;-84
2021/03/21 03:39:23;;;;;;;8.57;5.38;;;;;;;4.93;53.65;100948.53;5013427;28;20485;-82
2021/03/21 03:42:04;;;;;;;6.85;5.05;;;;;;;4.92;53.82;100949.44;5018017;28;20058;-83
2021/03/21 03:44:30;;;;;;;;;;;;;;;4.96;53.84;100956.38;5027367;28;20056;-87
2021/03/21 03:47:29;;;;;;;9.60;5.00;;;;;;;4.92;53.33;100949.44;5009929;28;19922;-82
2021/03/21 03:50:31;;;;;;;9.32;5.43;;;;;;;4.96;53.79;100951.13;5025503;28;20140;-80
2021/03/21 03:52:57;;;;;;;8.45;5.55;;;;;;;4.90;53.77;100948.59;4993095;28;20114;-84
2021/03/21 03:55:24;;;;;;;9.82;5.68;;;;;;;4.88;54.74;100947.72;5021149;28;20054;-84
2021/03/21 03:57:59;;;;;;;8.55;5.82;;;;;;;4.92;55.03;100945.06;5001049;28;20045;-81
2021/03/21 04:00:35;;;;;;;10.57;5.78;;;;;;;4.96;55.40;100950.25;5011770;28;20064;-84
2021/03/21 04:03:38;;;;;;;10.98;6.43;;;;;;;4.98;55.13;100949.34;5006903;28;20080;-86
2021/03/21 04:06:12;;;;;;;9.93;6.65;;;;;;;4.99;55.67;100948.47;5027247;28;20056;-79
2021/03/21 04:08:52;;;;;;;11.23;6.50;;;;;;;4.98;56.09;100943.22;5026611;28;20072;-80
2021/03/21 04:11:29;;;;;;;9.98;7.03;;;;;;;4.98;56.42;100943.22;5022642;28;20073;-81
2021/03/21 04:14:04;;;;;;;11.43;7.18;;;;;;;5.00;56.64;100938.84;5028168;28;20109;-81
2021/03/21 04:16:35;;;;;;;13.32;7.50;;;;;;;5.02;56.93;100937.94;5026259;28;20050;-81
2021/03/21 04:19:08;;;;;;;12.20;7.78;;;;;;;5.03;56.87;100931.78;5025624;28;20519;-83
2021/03/21 04:21:46;;;;;;;17.73;8.65;;;;;;;5.11;57.47;100924.63;5014774;28;20047;-84
2021/03/21 04:24:33;;;;;;;13.48;9.20;;;;;;;5.18;57.78;100925.41;5018675;28;20572;-81
2021/03/21 04:27:07;;;;;;;15.57;9.55;;;;;;;5.20;58.24;100921.84;5015304;28;20046;-82
2021/03/21 04:29:36;;;;;;;17.13;10.05;;;;;;;5.28;58.11;100924.38;5011988;28;20054;-82
2021/03/21 04:32:12;;;;;;;16.98;10.95;;;;;;;5.33;58.44;100926.91;5015329;28;20137;-80
2021/03/21 04:34:42;;;;;;;18.30;12.20;;;;;;;5.37;59.29;100916.31;5015473;28;20121;-82
2021/03/21 04:37:09;;;;;;;21.77;12.13;;;;;;;5.36;60.36;100908.47;5017413;28;20493;-82
2021/03/21 04:39:37;;;;;;;18.58;12.82;;;;;;;5.34;60.58;100911.13;5001466;28;20153;-80
2021/03/21 04:42:10;;;;;;;19.25;12.25;;;;;;;5.35;61.02;100912.00;5025142;28;20141;-85
2021/03/21 04:45:03;;;;;;;26.20;19.23;;;;;;;5.35;62.88;100910.25;5030658;28;20053;-81
2021/03/21 04:47:54;;;;;;;23.92;14.95;;;;;;;5.40;63.82;100912.78;5023254;28;20041;-81
2021/03/21 04:50:22;;;;;;;25.08;16.13;;;;;;;5.39;65.14;100909.28;5009734;28;20058;-81
2021/03/21 04:52:54;;;;;;;23.08;15.30;;;;;;;5.36;65.55;100903.22;5023286;28;20070;-84
2021/03/21 04:55:26;;;;;;;26.02;15.30;;;;;;;5.35;66.06;100902.38;5027534;28;20140;-80
2021/03/21 04:57:57;;;;;;;25.45;16.20;;;;;;;5.36;65.87;100903.22;5009614;28;20131;-78
2021/03/21 05:00:37;;;;;;;26.48;17.35;;;;;;;5.35;66.78;100905.00;5023410;28;20058;-80
2021/03/21 05:03:09;;;;;;;28.73;16.77;;;;;;;5.34;67.29;100900.63;5025807;28;20053;-83
2021/03/21 05:06:05;;;;;;;30.02;16.83;;;;;;;5.35;66.77;100896.25;5028991;28;20049;-85
2021/03/21 05:08:49;;;;;;;23.35;15.55;;;;;;;5.28;67.66;100895.47;5006709;28;20057;-82
2021/03/21 05:11:18;;;;;;;29.30;17.55;;;;;;;5.32;67.33;100902.41;5004638;28;20084;-80
2021/03/21 05:13:55;;;;;;;27.20;16.92;;;;;;;5.36;67.81;100900.56;5010317;28;20164;-80
2021/03/21 05:16:25;;;;;;;26.90;16.95;;;;;;;5.34;67.82;100905.88;5016443;28;20128;-81
2021/03/21 05:19:17;;;;;;;27.55;17.15;;;;;;;5.34;68.11;100905.88;5012512;28;20046;-81
2021/03/21 05:21:52;;;;;;;25.42;16.90;;;;;;;5.24;68.47;100889.41;5013092;28;20049;-81
2021/03/21 05:24:39;;;;;;;29.15;17.55;;;;;;;5.18;69.38;100876.41;4998923;28;20113;-83
2021/03/21 05:27:11;;;;;;;27.70;17.95;;;;;;;5.25;69.48;100887.66;5029593;28;20141;-81
2021/03/21 05:30:15;;;;;;;31.30;19.02;;;;;;;5.26;69.71;100882.38;5026860;28;20106;-84
2021/03/21 05:32:47;;;;;;;32.45;19.40;;;;;;;5.29;70.43;100877.06;5031175;28;20068;-85
2021/03/21 05:35:24;;;;;;;29.65;18.65;;;;;;;5.24;71.00;100878.91;5031857;28;20637;-88
2021/03/21 05:37:53;;;;;;;31.17;19.77;;;;;;;5.26;70.59;100879.75;5032363;28;20038;-83
2021/03/21 05:41:15;;;;;;;34.30;20.90;;;;;;;5.35;70.84;100881.38;5026740;28;20089;-80
2021/03/21 05:44:19;;;;;;;33.55;20.85;;;;;;;5.31;71.07;100878.81;4956713;28;20064;-78
2021/03/21 05:47:15;;;;;;;37.85;21.75;;;;;;;5.32;70.45;100873.53;5017332;28;20136;-83
2021/03/21 05:49:45;;;;;;;32.83;21.23;;;;;;;5.36;70.92;100879.56;5019990;28;20172;-79
2021/03/21 05:52:33;;;;;;;35.80;21.83;;;;;;;5.35;71.04;100875.25;5009292;28;20065;-81
2021/03/21 05:55:21;;;;;;;38.50;23.20;;;;;;;5.34;71.82;100881.38;5024769;28;20132;-79
2021/03/21 05:58:13;;;;;;;38.25;24.08;;;;;;;5.28;72.05;100866.59;5024099;28;20054;-82
2021/03/21 06:00:49;;;;;;;43.05;25.85;;;;;;;5.20;72.05;100850.97;5036324;28;20057;-79
2021/03/21 06:03:32;;;;;;;38.95;24.88;;;;;;;5.20;72.27;100845.72;5019671;28;20049;-81
2021/03/21 06:06:29;;;;;;;39.15;24.15;;;;;;;5.27;72.38;100849.09;5021935;28;20073;-79
2021/03/21 06:09:28;;;;;;;38.85;24.05;;;;;;;5.40;71.59;100862.88;5019472;28;20089;-82
2021/03/21 06:12:35;;;;;;;39.63;23.25;;;;;;;5.50;71.44;100875.81;5009449;28;20056;-82
2021/03/21 06:15:17;;;;;;;37.78;24.00;;;;;;;5.49;71.56;100886.38;5012091;28;20076;-82
2021/03/21 06:18:03;;;;;;;39.50;24.90;;;;;;;5.47;71.51;100882.88;5001362;28;20493;-88
2021/03/21 06:20:48;;;;;;;40.38;23.63;;;;;;;5.40;72.19;100881.25;5012788;28;20045;-83
2021/03/21 06:23:34;;;;;;;37.70;23.60;;;;;;;5.36;72.23;100876.94;5014571;28;20054;-79
2021/03/21 06:26:36;;;;;;;38.17;23.90;;;;;;;5.41;72.39;100878.59;4998218;28;20066;-82
2021/03/21 06:29:25;;;;;;;40.63;24.52;;;;;;;5.45;72.50;100871.53;5008493;28;20049;-87
2021/03/21 06:32:30;;;;;;;36.65;23.73;;;;;;;5.49;72.48;100870.59;5020198;28;20114;-80
2021/03/21 06:35:22;;;;;;;37.38;23.50;;;;;;;5.53;72.85;100875.75;5010824;28;20077;-80
2021/03/21 06:38:12;;;;;;;35.95;23.17;;;;;;;5.53;71.80;100875.75;5021535;28;20077;-81
2021/03/21 06:40:47;;;;;;;;;;;;;;;5.51;72.31;100871.44;5017073;28;20805;-82
2021/03/21 06:43:38;;;;;;;33.45;20.67;;;;;;;5.49;73.29;100865.34;5018429;28;20373;-81
2021/03/21 06:46:48;;;;;;;34.00;21.85;;;;;;;5.45;72.53;100856.66;5025943;28;20397;-81
2021/03/21 06:49:44;;;;;;;35.15;21.48;;;;;;;5.50;72.59;100853.94;5013149;28;20124;-87
2021/03/21 06:52:25;;;;;;;32.95;20.65;;;;;;;5.52;73.04;100853.00;5010095;28;20153;-83
2021/03/21 06:54:57;;;;;;;29.05;19.52;;;;;;;5.59;72.75;100838.88;5012519;28;20058;-81
2021/03/21 06:57:26;;;;;;;30.90;19.58;;;;;;;5.71;72.29;100840.38;5016107;28;20559;-82
2021/03/21 07:00:12;;;;;;;28.88;18.95;;;;;;;5.82;72.14;100827.91;5015997;28;20145;-82
2021/03/21 07:03:25;;;;;;;28.38;18.08;;;;;;;5.96;72.14;100832.91;5021205;28;20049;-82
2021/03/21 07:06:29;;;;;;;28.58;17.73;;;;;;;6.11;71.90;100836.97;5019857;28;20065;-82
2021/03/21 07:09:05;;;;;;;27.83;17.67;;;;;;;6.24;71.02;100830.53;5021411;28;20114;-82
2021/03/21 07:11:53;;;;;;;26.63;16.48;;;;;;;6.38;70.31;100827.59;5022812;28;20058;-81
2021/03/21 07:14:38;;;;;;;27.73;17.00;;;;;;;6.56;69.79;100828.03;5018536;28;20049;-82
2021/03/21 07:17:42;;;;;;;22.67;15.15;;;;;;;6.81;69.04;100820.41;5013551;28;20133;-82
2021/03/21 07:20:33;;;;;;;22.48;15.10;;;;;;;6.86;68.95;100817.66;5027800;28;20049;-85
2021/03/21 07:23:10;;;;;;;;;;;;;;;6.87;68.81;100819.38;5029291;28;20134;-81
2021/03/21 07:25:58;;;;;;;23.20;14.77;;;;;;;6.82;68.85;100810.72;5019461;28;19932;-81
2021/03/21 07:28:34;;;;;;;21.45;14.07;;;;;;;6.79;68.82;100816.06;5017526;28;20058;-84
2021/03/21 07:31:31;;;;;;;19.45;13.65;;;;;;;6.77;69.34;100817.91;5016975;28;20060;-83
2021/03/21 07:34:13;;;;;;;22.17;14.63;;;;;;;6.79;69.27;100827.47;5016348;28;20088;-86
2021/03/21 07:37:10;;;;;;;20.38;13.02;;;;;;;6.87;69.06;100820.25;5010079;28;20460;-83
2021/03/21 07:39:50;;;;;;;22.13;14.20;;;;;;;6.93;69.59;100825.34;4996628;28;20313;-81
2021/03/21 07:42:41;;;;;;;20.02;13.63;;;;;;;6.95;69.19;100817.41;5021519;28;20089;-79
2021/03/21 07:45:16;;;;;;;20.58;13.07;;;;;;;7.00;69.00;100816.41;5017082;28;20065;-79
2021/03/21 07:47:49;;;;;;;19.35;12.60;;;;;;;7.08;69.61;100818.84;5028098;28;20074;-84
2021/03/21 07:50:35;;;;;;;17.27;12.05;;;;;;;7.18;69.43;100808.94;5021818;28;20057;-84
2021/03/21 07:53:02;;;;;;;17.10;11.48;;;;;;;7.16;68.93;100810.75;5016638;28;20053;-83
2021/03/21 07:59:04;;;;;;;15.98;11.20;;;;;;;7.13;69.20;100823.97;5022344;28;20133;-82
2021/03/21 08:01:31;;;;;;;15.90;11.13;;;;;;;7.20;68.94;100829.06;5018085;28;20045;-84
2021/03/21 08:04:08;;;;;;;16.10;11.02;;;;;;;7.21;69.05;100835.19;5026879;28;20080;-85
2021/03/21 08:06:43;;;;;;;15.00;10.52;;;;;;;7.24;69.04;100835.97;5030032;28;20072;-82
2021/03/21 08:09:16;;;;;;;13.50;9.95;;;;;;;7.43;69.48;100823.16;5011408;28;20054;-84
2021/03/21 08:11:51;;;;;;;12.77;9.43;;;;;;;7.61;68.23;100820.03;5033230;28;20104;-81
2021/03/21 08:14:26;;;;;;;12.07;9.10;;;;;;;7.69;68.15;100819.81;5024708;28;20062;-81
2021/03/21 08:16:56;;;;;;;12.77;8.90;;;;;;;7.69;68.59;100817.19;5032253;28;20052;-80
2021/03/21 08:19:27;;;;;;;9.35;7.15;;;;;;;7.74;68.29;100820.53;5033582;28;20054;-81
2021/03/21 08:21:55;;;;;;;9.38;7.13;;;;;;;7.76;68.05;100813.44;5028682;28;20046;-85
2021/03/21 08:24:33;;;;;;;9.07;7.07;;;;;;;7.77;68.69;100816.94;5026883;28;20498;-81
2021/03/21 08:27:19;;;;;;;10.38;6.95;;;;;;;7.94;67.83;100812.06;5026356;28;20054;-82
2021/03/21 08:30:12;;;;;;;9.73;6.80;;;;;;;7.99;67.62;100816.28;5025171;28;20049;-81
2021/03/21 08:33:04;;;;;;;8.65;6.28;;;;;;;8.08;67.20;100817.78;5024977;28;20058;-79
2021/03/21 08:35:34;;;;;;;10.07;6.85;;;;;;;8.18;67.12;100824.53;5024105;28;20062;-79
2021/03/21 08:38:19;;;;;;;7.93;6.10;;;;;;;8.30;66.64;100820.66;5023146;28;20050;-81
2021/03/21 08:40:47;;;;;;;7.57;6.18;;;;;;;8.51;66.29;100813.84;5021819;28;20500;-81
2021/03/21 08:43:29;;;;;;;10.30;6.70;;;;;;;8.90;65.20;100807.28;5004025;28;20116;-84
2021/03/21 08:45:56;;;;;;;9.60;6.32;;;;;;;9.17;63.92;100813.38;5008507;28;20109;-82
2021/03/21 08:48:36;;;;;;;7.38;5.38;;;;;;;9.07;63.89;100804.94;5022062;28;20108;-79
2021/03/21 08:51:11;;;;;;;5.88;4.70;;;;;;;9.03;64.12;100808.59;5013685;28;20058;-80
2021/03/21 08:54:02;;;;;;;7.72;4.70;;;;;;;9.05;64.02;100806.75;5017981;28;20057;-81
2021/03/21 08:56:37;;;;;;;4.35;3.75;;;;;;;9.02;64.22;100806.00;4997921;28;20057;-81
2021/03/21 08:59:25;;;;;;;4.90;3.70;;;;;;;9.03;64.18;100813.00;5021011;28;20050;-80
2021/03/21 09:01:58;;;;;;;5.13;3.40;;;;;;;9.09;64.59;100805.75;5023261;28;20085;-80
2021/03/21 09:04:26;;;;;;;3.67;3.13;;;;;;;8.98;64.38;100807.88;5018842;28;20066;-81
2021/03/21 09:06:54;;;;;;;5.28;3.33;;;;;;;8.92;64.89;100805.44;5024978;28;20108;-79
2021/03/21 09:09:36;;;;;;;4.57;3.10;;;;;;;8.87;65.65;100811.78;5014676;28;20342;-81
2021/03/21 09:12:20;;;;;;;3.88;2.88;;;;;;;8.71;65.28;100806.16;5025478;28;20094;-87
2021/03/21 09:14:51;;;;;;;4.45;3.35;;;;;;;8.63;66.38;100805.56;5024961;28;20057;-81
2021/03/21 09:17:26;;;;;;;4.35;3.15;;;;;;;8.60;66.90;100810.91;5023650;28;20125;-78
2021/03/21 09:19:59;;;;;;;3.63;3.17;;;;;;;8.54;67.57;100804.06;5021329;28;20060;-80
2021/03/21 09:22:34;;;;;;;6.18;3.00;;;;;;;8.54;67.80;100797.91;5021199;28;20054;-80
2021/03/21 09:25:11;;;;;;;4.88;3.53;;;;;;;8.63;67.24;100803.78;5003626;28;20062;-80
2021/03/21 09:27:40;;;;;;;3.33;3.03;;;;;;;8.66;66.89;100801.00;5019614;28;20117;-79
2021/03/21 09:30:13;;;;;;;4.10;3.20;;;;;;;8.60;67.19;100800.38;5029157;28;20064;-81
2021/03/21 09:32:40;;;;;;;4.07;3.20;;;;;;;8.60;68.15;100797.72;5015531;28;20124;-82
2021/03/21 09:35:19;;;;;;;4.50;3.08;;;;;;;8.59;68.04;100791.59;5011992;28;20073;-83
2021/03/21 09:37:47;;;;;;;6.18;3.42;;;;;;;8.60;68.13;100789.81;5016886;28;20690;-80
2021/03/21 09:40:26;;;;;;;4.35;3.22;;;;;;;8.61;68.17;100784.47;5021329;28;20054;-82
2021/03/21 09:42:56;;;;;;;4.75;3.10;;;;;;;8.67;68.13;100772.84;5018257;28;20048;-84
2021/03/21 09:45:23;;;;;;;5.95;3.38;;;;;;;8.70;67.94;100780.66;5038435;28;20744;-82
2021/03/21 09:48:00;;;;;;;6.40;3.40;;;;;;;8.73;68.07;100783.19;5022116;28;20173;-84
2021/03/21 09:50:39;;;;;;;5.05;3.42;;;;;;;8.65;68.03;100774.69;5016403;28;20065;-81
2021/03/21 09:56:58;;;;;;;4.30;3.15;;;;;;;8.87;67.95;100767.75;5028667;28;20050;-81
2021/03/21 10:03:33;;;;;;;4.22;3.17;;;;;;;9.65;65.63;100754.41;5019612;28;20076;-79
2021/03/21 10:06:31;;;;;;;5.57;3.08;;;;;;;10.07;64.25;100746.63;5016565;28;20048;-81
2021/03/21 10:09:08;;;;;;;4.22;2.42;;;;;;;10.43;61.67;100739.00;5024821;28;20053;-81
2021/03/21 10:11:38;;;;;;;3.78;2.63;;;;;;;10.66;61.08;100725.69;5010026;28;20050;-81
2021/03/21 10:17:44;;;;;;;3.05;2.38;;;;;;;11.14;58.93;100733.31;5044074;28;20493;-80
2021/03/21 10:20:17;;;;;;;2.10;1.90;;;;;;;11.15;55.90;100726.22;5032929;28;20117;-82
2021/03/21 10:23:09;;;;;;;2.22;1.83;;;;;;;11.01;55.80;100732.13;5024387;28;20457;-80
2021/03/21 10:25:39;;;;;;;2.45;2.05;;;;;;;10.83;57.26;100744.38;5023092;28;20050;-81
2021/03/21 10:28:32;;;;;;;2.15;1.95;;;;;;;10.59;57.78;100726.84;5022818;28;20465;-81
2021/03/21 10:31:21;;;;;;;2.28;1.95;;;;;;;10.47;57.51;100735.31;5024558;28;20053;-86
2021/03/21 10:33:52;;;;;;;2.47;2.15;;;;;;;10.31;57.56;100729.78;5029395;28;20077;-79
2021/03/21 10:40:36;;;;;;;3.80;1.95;;;;;;;10.48;57.87;100737.91;5032797;28;20165;-83
2021/03/21 10:43:03;;;;;;;2.08;1.80;;;;;;;10.47;56.97;100736.19;5029840;28;20065;-83
2021/03/21 10:45:35;;;;;;;3.05;1.90;;;;;;;10.38;57.39;100738.34;5024927;28;20137;-80
2021/03/21 10:48:19;;;;;;;2.45;2.10;;;;;;;10.28;57.39;100750.22;5009067;28;20054;-80
2021/03/21 10:50:46;;;;;;;2.05;1.80;;;;;;;10.30;57.36;100743.06;5015508;28;20045;-79
2021/03/21 11:00:26;;;;;;;2.58;1.40;;;;;;;10.84;53.99;100740.81;5002588;28;20064;-80
2021/03/21 11:03:20;;;;;;;1.67;0.90;;;;;;;10.66;52.52;100730.97;5015823;28;20056;-83
2021/03/21 11:05:47;;;;;;;1.20;1.10;;;;;;;10.54;53.16;100726.22;5000054;28;20062;-80
2021/03/21 11:08:14;;;;;;;2.47;1.20;;;;;;;10.58;53.52;100727.78;5018394;28;20935;-80
2021/03/21 11:10:51;;;;;;;2.10;1.30;;;;;;;10.57;53.18;100726.06;5022254;28;20117;-81
2021/03/21 11:17:21;;;;;;;1.08;1.00;;;;;;;10.36;53.11;100730.47;5021223;28;20054;-79
2021/03/21 11:19:59;;;;;;;1.52;1.20;;;;;;;10.40;52.50;100733.81;4958898;28;20051;-81
2021/03/21 11:22:31;;;;;;;1.40;1.05;;;;;;;10.49;53.39;100730.81;4978335;28;20496;-80
2021/03/21 11:25:31;;;;;;;1.85;1.45;;;;;;;10.65;53.03;100713.38;4960086;28;20090;-85
2021/03/21 11:28:06;;;;;;;1.60;1.30;;;;;;;10.67;52.86;100714.16;4976335;28;20517;-82
2021/03/21 11:30:58;;;;;;;2.22;1.42;;;;;;;10.81;53.17;100719.75;4948030;28;20534;-80
2021/03/21 11:33:42;;;;;;;1.95;1.73;;;;;;;10.95;52.33;100715.63;4973397;28;20083;-84
2021/03/21 11:36:20;;;;;;;1.98;1.50;;;;;;;11.13;51.18;100714.81;4962027;28;20047;-87
2021/03/21 11:38:49;;;;;;;2.22;1.10;;;;;;;11.13;50.50;100713.03;5029923;28;20081;-79
2021/03/21 11:41:37;;;;;;;1.27;1.17;;;;;;;11.02;50.85;100727.69;5039372;28;20105;-81
2021/03/21 11:47:31;;;;;;;1.27;1.15;;;;;;;11.15;49.54;100728.88;5037255;28;20049;-80
2021/03/21 11:53:48;;;;;;;2.00;1.23;;;;;;;11.49;48.85;100712.31;5027116;28;20052;-80
2021/03/21 11:56:26;;;;;;;2.38;1.42;;;;;;;11.61;48.85;100706.44;5032439;28;20125;-79
2021/03/21 11:58:53;;;;;;;1.98;1.20;;;;;;;11.76;48.32;100697.81;5026859;28;20079;-79
2021/03/21 12:01:30;;;;;;;2.42;1.60;;;;;;;11.90;48.08;100699.81;5025527;28;20080;-79
2021/03/21 12:04:01;;;;;;;1.70;1.55;;;;;;;12.00;48.34;100694.91;5017932;28;20068;-84
2021/03/21 12:06:38;;;;;;;2.35;2.15;;;;;;;11.98;48.79;100692.31;5035341;28;20114;-79
2021/03/21 12:09:36;;;;;;;4.22;2.00;;;;;;;12.11;49.31;100690.81;5023265;28;20045;-79
2021/03/21 12:12:35;;;;;;;1.73;1.50;;;;;;;12.11;47.59;100689.97;5015939;28;20076;-81
2021/03/21 12:15:13;;;;;;;1.50;1.40;;;;;;;12.16;47.47;100687.94;5024715;28;20085;-79
2021/03/21 12:17:42;;;;;;;2.85;2.00;;;;;;;12.17;46.55;100689.66;5022333;28;20065;-79
2021/03/21 12:20:38;;;;;;;2.15;1.63;;;;;;;11.96;47.64;100680.94;5017147;28;20041;-80
2021/03/21 12:26:32;;;;;;;2.90;1.95;;;;;;;11.77;48.22;100683.63;4973495;28;20108;-83
2021/03/21 12:29:04;;;;;;;2.33;1.53;;;;;;;11.70;47.72;100679.47;5022703;28;20054;-81
2021/03/21 12:31:41;;;;;;;;;;;;;;;11.72;47.48;100676.75;5021760;28;20054;-83
2021/03/21 12:34:20;;;;;;;3.78;1.80;;;;;;;11.74;47.50;100675.75;5022774;28;19985;-80
2021/03/21 12:40:39;;;;;;;3.03;1.55;;;;;;;11.64;47.53;100666.53;5010398;28;20070;-81
2021/03/21 12:43:28;;;;;;;2.00;1.48;;;;;;;11.55;47.94;100664.28;5014443;28;20120;-80
2021/03/21 12:46:15;;;;;;;2.45;1.38;;;;;;;11.59;47.32;100669.38;5023819;28;20117;-85
2021/03/21 12:48:55;;;;;;;1.88;1.30;;;;;;;11.51;47.43;100670.66;5026911;28;20050;-87
2021/03/21 12:51:30;;;;;;;2.70;1.50;;;;;;;11.50;47.80;100659.19;5022820;28;20114;-80
2021/03/21 12:53:57;;;;;;;3.85;1.40;;;;;;;11.54;46.68;100662.56;5011860;28;20060;-82
2021/03/21 12:56:24;;;;;;;3.08;1.40;;;;;;;11.77;46.36;100659.75;5019026;28;20057;-84
2021/03/21 12:58:50;;;;;;;4.15;1.48;;;;;;;12.13;46.13;100650.91;5023934;28;20081;-80
2021/03/21 13:01:17;;;;;;;2.30;1.50;;;;;;;12.33;44.62;100649.91;5028958;28;20069;-81